Time;durP1;ratioP1;P1;durP2;ratioP2;P2;SDS_P1;SDS_P2;PMS_P1;PMS_P2;Temp;Humidity;BMP_temperature;BMP_pressure;BME280_temperature;BME280_humidity;BME280_pressure;Samples;Min_cycle;Max_cycle;Signal;HPM_P1;HPM_P2
2021/11/04 00:00:36;;;;;;;16.60;11.52;;;;;;;5.29;87.47;100562.66;5042871;28;20080;-70
2021/11/04 00:03:02;;;;;;;17.10;11.02;;;;;;;5.29;87.32;100565.25;5040130;28;20029;-70
2021/11/04 00:05:28;;;;;;;15.80;12.00;;;;;;;5.28;87.36;100566.13;5043209;28;20116;-71
2021/11/04 00:07:57;;;;;;;17.60;11.48;;;;;;;5.32;87.62;100564.47;5043308;28;20444;-70
2021/11/04 00:10:22;;;;;;;18.48;12.52;;;;;;;5.33;87.61;100569.69;5043272;28;20034;-70
2021/11/04 00:12:48;;;;;;;16.02;12.27;;;;;;;5.34;87.69;100562.75;5043868;28;20041;-70
2021/11/04 00:15:14;;;;;;;17.50;12.15;;;;;;;5.33;87.77;100568.78;5043037;28;20050;-71
2021/11/04 00:17:41;;;;;;;17.10;12.20;;;;;;;5.32;87.39;100570.53;5042500;28;20105;-71
2021/11/04 00:20:08;;;;;;;16.98;11.80;;;;;;;5.29;86.98;100573.06;5043369;28;20032;-71
2021/11/04 00:22:33;;;;;;;17.52;12.30;;;;;;;5.27;87.22;100572.19;5043506;28;20124;-71
2021/11/04 00:24:59;;;;;;;15.80;12.05;;;;;;;5.25;86.92;100572.19;5042329;28;20037;-70
2021/11/04 00:27:24;;;;;;;18.08;11.60;;;;;;;5.23;87.37;100573.00;5043163;28;20120;-71
2021/11/04 00:29:50;;;;;;;14.63;11.30;;;;;;;5.21;87.22;100572.97;5043192;28;20033;-71
2021/11/04 00:32:16;;;;;;;17.55;11.70;;;;;;;5.18;87.03;100569.44;5041432;28;20040;-70
2021/11/04 00:34:42;;;;;;;16.60;11.48;;;;;;;5.16;87.08;100564.22;5042301;28;20047;-71
2021/11/04 00:37:07;;;;;;;17.85;11.82;;;;;;;5.15;87.14;100567.66;5043072;28;20037;-70
2021/11/04 00:39:32;;;;;;;15.70;11.35;;;;;;;5.14;86.81;100563.31;5041315;28;20060;-70
2021/11/04 00:41:58;;;;;;;14.23;10.68;;;;;;;5.13;86.85;100565.91;5043142;28;20038;-70
2021/11/04 00:44:23;;;;;;;15.15;10.52;;;;;;;5.11;87.04;100565.00;5043182;28;20168;-71
2021/11/04 00:46:49;;;;;;;14.25;10.73;;;;;;;5.07;86.60;100559.72;5042506;28;20029;-70
2021/11/04 00:49:15;;;;;;;16.35;11.20;;;;;;;5.03;86.68;100557.94;5042460;28;20116;-70
2021/11/04 00:51:40;;;;;;;14.13;10.23;;;;;;;4.97;86.69;100555.22;5042853;28;20029;-70
2021/11/04 00:54:05;;;;;;;14.77;10.77;;;;;;;4.95;87.43;100556.91;5043184;28;20052;-70
2021/11/04 00:56:31;;;;;;;15.38;10.57;;;;;;;4.91;87.13;100549.91;5042982;28;20100;-71
2021/11/04 00:58:56;;;;;;;15.07;10.90;;;;;;;4.92;87.65;100548.19;5042388;28;20121;-70
2021/11/04 01:01:23;;;;;;;16.05;10.60;;;;;;;4.89;87.43;100549.00;5041623;28;20132;-70
2021/11/04 01:03:54;;;;;;;14.30;10.15;;;;;;;4.88;87.50;100555.06;5039573;28;20026;-70
2021/11/04 01:06:21;;;;;;;18.20;9.60;;;;;;;4.84;87.03;100548.06;5043017;28;20048;-70
2021/11/04 01:08:48;;;;;;;15.88;10.38;;;;;;;4.87;87.58;100555.91;5042739;28;20028;-71
2021/11/04 01:11:14;;;;;;;14.05;10.25;;;;;;;4.88;87.57;100550.75;5041958;28;20064;-71
2021/11/04 01:13:39;;;;;;;14.82;10.13;;;;;;;4.87;87.69;100550.69;5042212;28;20041;-70
2021/11/04 01:16:05;;;;;;;14.68;9.63;;;;;;;4.85;87.53;100545.47;5042133;28;20033;-70
2021/11/04 01:18:31;;;;;;;13.35;9.63;;;;;;;4.85;87.42;100549.81;5042877;28;20029;-70
2021/11/04 01:20:57;;;;;;;13.23;9.25;;;;;;;4.80;86.99;100549.75;5043303;28;20037;-71
2021/11/04 01:23:22;;;;;;;12.45;9.52;;;;;;;4.79;87.28;100544.50;5046693;28;20034;-70
2021/11/04 01:25:48;;;;;;;14.57;8.65;;;;;;;4.81;87.10;100545.41;5045801;28;20052;-71
2021/11/04 01:28:15;;;;;;;12.18;9.18;;;;;;;4.75;87.12;100542.69;5046308;28;20404;-70
2021/11/04 01:30:40;;;;;;;14.40;9.40;;;;;;;4.75;87.81;100538.38;5046376;28;20029;-69
2021/11/04 01:33:06;;;;;;;13.40;9.70;;;;;;;4.77;87.33;100541.88;5045029;28;20045;-71
2021/11/04 01:35:32;;;;;;;13.27;9.02;;;;;;;4.74;86.95;100539.19;5045915;28;20021;-70
2021/11/04 01:37:59;;;;;;;11.68;9.13;;;;;;;4.71;87.54;100536.56;5046269;28;20559;-70
2021/11/04 01:40:25;;;;;;;14.57;9.77;;;;;;;4.73;87.19;100534.88;5041552;28;20087;-70
2021/11/04 01:42:51;;;;;;;13.30;9.07;;;;;;;4.73;87.31;100539.19;5046113;28;20060;-70
2021/11/04 01:45:16;;;;;;;13.48;9.23;;;;;;;4.72;86.94;100534.81;5045824;28;20029;-70
2021/11/04 01:47:45;;;;;;;12.05;8.35;;;;;;;4.68;86.99;100539.97;5045744;28;20033;-70
2021/11/04 01:50:11;;;;;;;9.43;8.02;;;;;;;4.69;87.35;100533.06;5045473;28;20060;-70
2021/11/04 01:52:37;;;;;;;12.68;8.65;;;;;;;4.66;86.99;100530.41;5055878;28;20061;-70
2021/11/04 01:55:02;;;;;;;14.50;10.00;;;;;;;4.63;87.18;100538.13;5046061;28;20034;-72
2021/11/04 01:57:28;;;;;;;14.02;9.45;;;;;;;4.64;87.39;100539.91;5045507;28;20030;-71
2021/11/04 01:59:53;;;;;;;15.32;9.48;;;;;;;4.62;87.64;100539.88;5045778;28;20037;-71
2021/11/04 02:02:21;;;;;;;12.90;9.73;;;;;;;4.61;88.10;100539.84;5042642;28;20044;-70
2021/11/04 02:04:58;;;;;;;15.85;9.50;;;;;;;4.57;87.30;100544.09;5044987;28;20097;-70
2021/11/04 02:07:29;;;;;;;14.00;9.40;;;;;;;4.57;87.51;100532.84;5043550;28;20106;-70
2021/11/04 02:10:05;;;;;;;9.95;8.25;;;;;;;4.53;87.30;100538.84;5039271;28;20132;-70
2021/11/04 02:12:53;;;;;;;10.77;7.65;;;;;;;4.49;86.60;100537.91;5045390;28;20025;-70
2021/11/04 02:15:20;;;;;;;12.40;8.05;;;;;;;4.47;86.76;100540.47;5044607;28;20045;-70
2021/11/04 02:17:47;;;;;;;10.82;8.13;;;;;;;4.43;87.04;100538.66;5038523;28;20041;-70
2021/11/04 02:20:19;;;;;;;12.45;7.65;;;;;;;4.42;86.54;100536.03;5044139;28;20133;-71
2021/11/04 02:23:12;;;;;;;11.15;7.38;;;;;;;4.42;86.77;100541.22;5044806;28;20052;-71
2021/11/04 02:25:39;;;;;;;10.05;7.28;;;;;;;4.39;86.74;100534.25;5044637;28;20034;-69
2021/11/04 02:28:08;;;;;;;10.73;7.85;;;;;;;4.35;86.59;100534.16;5046155;28;20068;-69
2021/11/04 02:30:35;;;;;;;11.80;7.75;;;;;;;4.33;87.12;100528.06;5044909;28;20057;-69
2021/11/04 02:33:00;;;;;;;9.75;7.45;;;;;;;4.27;87.11;100524.50;5043037;28;20021;-69
2021/11/04 02:35:27;;;;;;;9.60;7.53;;;;;;;4.26;87.56;100522.75;5044085;28;20036;-71
2021/11/04 02:37:53;;;;;;;12.13;8.65;;;;;;;4.25;86.49;100523.59;5045357;28;20052;-70
2021/11/04 02:40:21;;;;;;;9.75;7.75;;;;;;;4.23;86.56;100521.81;5043211;28;20376;-70
2021/11/04 02:42:46;;;;;;;12.30;8.30;;;;;;;4.26;87.13;100525.34;5044895;28;20021;-70
2021/11/04 02:45:13;;;;;;;13.02;8.68;;;;;;;4.27;86.89;100521.00;5048122;28;20512;-70
2021/11/04 02:47:39;;;;;;;13.15;8.13;;;;;;;4.28;87.40;100523.66;5042271;28;20033;-70
2021/11/04 02:50:07;;;;;;;11.98;8.10;;;;;;;4.26;86.66;100522.75;5042725;28;20118;-70
2021/11/04 02:52:32;;;;;;;12.02;8.35;;;;;;;4.23;86.52;100519.19;5045415;28;20029;-70
2021/11/04 02:54:59;;;;;;;10.20;8.18;;;;;;;4.21;86.41;100524.38;5044126;28;20034;-70
2021/11/04 02:57:25;;;;;;;13.32;8.50;;;;;;;4.19;86.84;100531.28;5038961;28;20033;-70
2021/11/04 02:59:51;;;;;;;13.73;8.25;;;;;;;4.19;86.94;100528.66;5044118;28;20033;-70
2021/11/04 03:02:17;;;;;;;10.65;7.93;;;;;;;4.20;87.06;100534.78;5044775;28;20113;-70
2021/11/04 03:04:42;;;;;;;14.23;8.35;;;;;;;4.19;86.98;100536.47;5042206;28;20044;-69
2021/11/04 03:07:08;;;;;;;12.93;9.00;;;;;;;4.22;87.42;100533.06;5041442;28;20116;-70
2021/11/04 03:09:33;;;;;;;13.52;8.52;;;;;;;4.23;87.77;100527.88;5042414;28;20101;-70
2021/11/04 03:12:00;;;;;;;13.90;8.82;;;;;;;4.30;88.03;100536.69;5043718;28;20121;-70
2021/11/04 03:14:25;;;;;;;12.25;8.27;;;;;;;4.37;87.99;100529.88;5044074;28;20064;-70
2021/11/04 03:16:53;;;;;;;11.77;8.90;;;;;;;4.43;87.72;100530.00;5044246;28;20061;-70
2021/11/04 03:19:21;;;;;;;11.82;8.63;;;;;;;4.49;86.97;100532.69;5044821;28;20026;-71
2021/11/04 03:21:50;;;;;;;12.20;7.80;;;;;;;4.56;87.39;100541.50;5044411;28;20450;-70
2021/11/04 03:24:18;;;;;;;12.27;8.15;;;;;;;4.61;87.64;100542.44;5044484;28;20033;-70
2021/11/04 03:26:46;;;;;;;12.45;8.40;;;;;;;4.67;87.75;100540.84;5044246;28;20033;-71
2021/11/04 03:29:13;;;;;;;11.68;8.52;;;;;;;4.75;88.13;100547.91;5042756;28;20029;-70
2021/11/04 03:31:40;;;;;;;13.45;8.48;;;;;;;4.82;88.01;100550.66;5043928;28;20097;-70
2021/11/04 03:34:06;;;;;;;11.00;8.35;;;;;;;4.91;88.12;100556.84;5043508;28;20038;-70
2021/11/04 03:36:34;;;;;;;12.55;8.73;;;;;;;4.95;88.14;100556.91;5044181;28;20042;-71
2021/11/04 03:39:00;;;;;;;10.38;7.82;;;;;;;4.99;88.08;100556.13;5042093;28;20366;-69
2021/11/04 03:41:27;;;;;;;11.68;8.38;;;;;;;4.99;88.23;100560.44;5043592;28;20551;-69
2021/11/04 03:43:52;;;;;;;12.75;8.23;;;;;;;4.93;88.09;100560.34;5043807;28;20037;-69
2021/11/04 03:46:19;;;;;;;12.15;8.50;;;;;;;4.87;88.94;100558.50;5043847;28;20061;-70
2021/11/04 03:48:45;;;;;;;13.85;8.30;;;;;;;4.85;87.91;100558.47;5043621;28;20037;-70
2021/11/04 03:51:12;;;;;;;13.55;8.55;;;;;;;4.82;88.08;100558.44;5042942;28;20025;-69
2021/11/04 03:53:40;;;;;;;11.77;8.52;;;;;;;4.83;87.89;100560.19;5045120;28;20026;-69
2021/11/04 03:56:07;;;;;;;11.75;8.48;;;;;;;4.82;87.59;100567.97;5043883;28;20037;-70
2021/11/04 03:58:37;;;;;;;12.30;7.95;;;;;;;4.82;87.54;100563.66;5043384;28;20168;-70
2021/11/04 04:01:03;;;;;;;11.25;7.97;;;;;;;4.81;87.99;100572.31;5041757;28;20035;-70
2021/11/04 04:03:29;;;;;;;15.00;8.43;;;;;;;4.76;87.50;100573.94;5043119;28;20116;-68
2021/11/04 04:06:02;;;;;;;12.02;7.57;;;;;;;4.74;87.77;100574.78;5044082;28;20052;-68
2021/11/04 04:08:30;;;;;;;13.18;7.80;;;;;;;4.74;87.81;100578.25;5043205;28;20128;-69
2021/11/04 04:10:56;;;;;;;9.02;7.28;;;;;;;4.69;87.36;100574.72;5043014;28;20489;-69
2021/11/04 04:13:22;;;;;;;11.45;7.78;;;;;;;4.65;87.49;100578.97;5042594;28;20030;-68
2021/11/04 04:15:47;;;;;;;9.82;7.43;;;;;;;4.62;87.66;100576.31;5043895;28;20042;-69
2021/11/04 04:18:13;;;;;;;12.38;7.47;;;;;;;4.61;87.35;100571.97;5042118;28;20454;-69
2021/11/04 04:20:38;;;;;;;12.95;7.88;;;;;;;4.59;87.53;100568.44;5041331;28;20033;-69
2021/11/04 04:23:04;;;;;;;10.32;8.25;;;;;;;4.62;87.99;100573.69;5043237;28;20060;-69
2021/11/04 04:25:30;;;;;;;11.50;7.57;;;;;;;4.66;87.97;100572.03;5042989;28;20480;-70
2021/11/04 04:27:56;;;;;;;14.90;8.18;;;;;;;4.67;87.84;100576.41;5043291;28;20041;-69
2021/11/04 04:30:22;;;;;;;14.00;7.95;;;;;;;4.69;88.16;100572.97;5039216;28;20032;-70
2021/11/04 04:32:47;;;;;;;10.23;7.22;;;;;;;4.73;88.12;100576.50;5042848;28;20029;-69
2021/11/04 04:35:13;;;;;;;10.10;7.50;;;;;;;4.76;87.88;100584.34;5042842;28;20088;-69
2021/11/04 04:37:38;;;;;;;12.38;7.40;;;;;;;4.81;88.43;100577.50;5043074;28;20061;-69
2021/11/04 04:40:04;;;;;;;10.50;7.82;;;;;;;4.84;88.50;100574.97;5040933;28;20570;-69
2021/11/04 04:42:30;;;;;;;10.43;7.65;;;;;;;4.86;88.64;100577.59;5042922;28;20115;-69
2021/11/04 04:44:55;;;;;;;12.38;8.27;;;;;;;4.87;88.66;100576.75;5042978;28;20056;-69
2021/11/04 04:47:21;;;;;;;11.93;7.47;;;;;;;4.92;88.75;100574.22;5042693;28;20396;-69
2021/11/04 04:49:46;;;;;;;10.40;7.10;;;;;;;4.94;88.65;100573.41;5042425;28;20068;-69
2021/11/04 04:52:12;;;;;;;11.13;6.95;;;;;;;4.97;88.91;100580.38;5043022;28;20120;-69
2021/11/04 04:54:37;;;;;;;11.82;7.43;;;;;;;4.98;88.33;100582.13;5042751;28;20037;-69
2021/11/04 04:57:03;;;;;;;9.98;7.28;;;;;;;5.00;89.17;100589.13;5039757;28;20033;-69
2021/11/04 04:59:29;;;;;;;9.43;7.63;;;;;;;5.03;89.95;100589.19;5047007;28;20053;-69
2021/11/04 05:01:55;;;;;;;11.75;7.38;;;;;;;5.07;90.14;100593.59;5043105;28;20116;-69
2021/11/04 05:04:20;;;;;;;11.25;7.72;;;;;;;5.14;90.11;100598.88;5047263;28;20040;-68
2021/11/04 05:06:45;;;;;;;10.90;7.32;;;;;;;5.25;90.19;100599.94;5047213;28;20065;-65
2021/11/04 05:09:11;;;;;;;16.55;7.70;;;;;;;5.33;90.39;100600.06;5044002;28;20037;-65
2021/11/04 05:11:36;;;;;;;12.70;7.75;;;;;;;5.39;90.14;100597.56;5046804;28;20033;-66
2021/11/04 05:14:01;;;;;;;9.15;7.15;;;;;;;5.47;90.36;100598.56;5046045;28;20501;-66
2021/11/04 05:16:27;;;;;;;8.60;6.93;;;;;;;5.52;90.34;100599.50;5047288;28;20080;-66
2021/11/04 05:18:52;;;;;;;9.77;6.95;;;;;;;5.61;90.50;100596.16;5045500;28;20033;-67
2021/11/04 05:21:18;;;;;;;8.98;7.07;;;;;;;5.67;90.50;100604.03;5046487;28;20029;-68
2021/11/04 05:23:43;;;;;;;9.20;6.75;;;;;;;5.74;90.28;100595.47;5046072;28;20033;-68
2021/11/04 05:26:09;;;;;;;10.88;6.47;;;;;;;5.80;90.30;100603.41;5046026;28;20035;-68
2021/11/04 05:28:36;;;;;;;7.78;6.80;;;;;;;5.83;90.39;100611.25;5046764;28;20042;-68
2021/11/04 05:31:02;;;;;;;8.55;6.43;;;;;;;5.87;90.21;100614.78;5045888;28;20025;-68
2021/11/04 05:33:27;;;;;;;8.85;5.75;;;;;;;5.94;90.64;100621.84;5046586;28;20392;-68
2021/11/04 05:35:53;;;;;;;8.35;4.13;;;;;;;6.12;91.94;100622.97;5045955;28;20033;-69
2021/11/04 05:38:18;;;;;;;10.95;4.57;;;;;;;6.28;92.46;100624.91;5046604;28;20053;-65
2021/11/04 05:40:43;;;;;;;7.07;2.92;;;;;;;6.42;92.72;100625.06;5044249;28;20494;-65
2021/11/04 05:43:09;;;;;;;9.85;3.40;;;;;;;6.52;92.38;100616.50;5044865;28;20044;-65
2021/11/04 05:45:34;;;;;;;7.43;2.53;;;;;;;6.61;92.44;100618.31;5046309;28;20244;-64
2021/11/04 05:48:00;;;;;;;10.43;2.90;;;;;;;6.69;92.57;100619.31;5046149;28;20037;-64
2021/11/04 05:50:25;;;;;;;4.00;2.60;;;;;;;6.71;92.65;100612.34;5054541;28;20029;-65
2021/11/04 05:52:51;;;;;;;5.57;2.58;;;;;;;6.75;91.98;100608.91;5046321;28;20116;-65
2021/11/04 05:55:16;;;;;;;6.05;2.75;;;;;;;6.76;91.35;100609.78;5045851;28;20025;-65
2021/11/04 05:57:42;;;;;;;6.40;2.78;;;;;;;6.75;91.67;100614.13;5045935;28;20041;-64
2021/11/04 06:00:07;;;;;;;9.43;3.20;;;;;;;6.73;91.47;100615.84;5045536;28;20053;-65
2021/11/04 06:02:33;;;;;;;6.95;3.38;;;;;;;6.72;91.89;100623.66;5045134;28;20025;-65
2021/11/04 06:04:58;;;;;;;5.78;2.95;;;;;;;6.67;91.46;100627.97;5045316;28;20552;-66
2021/11/04 06:07:25;;;;;;;9.25;2.80;;;;;;;6.66;91.46;100628.84;5043909;28;20033;-67
2021/11/04 06:09:50;;;;;;;8.65;2.50;;;;;;;6.69;91.65;100628.84;5043924;28;20667;-67
2021/11/04 06:12:16;;;;;;;3.05;2.30;;;;;;;6.73;92.16;100634.13;5044936;28;20037;-67
2021/11/04 06:14:42;;;;;;;6.75;2.60;;;;;;;6.73;91.57;100628.00;5045789;28;20038;-67
2021/11/04 06:17:07;;;;;;;3.88;2.38;;;;;;;6.72;91.81;100626.28;5044948;28;20030;-67
2021/11/04 06:19:33;;;;;;;7.15;2.30;;;;;;;6.72;91.78;100631.50;5044686;28;20083;-68
2021/11/04 06:21:58;;;;;;;3.67;2.25;;;;;;;6.70;91.00;100633.22;5046772;28;20040;-68
2021/11/04 06:24:24;;;;;;;5.00;3.03;;;;;;;6.69;91.54;100636.69;5045037;28;20163;-67
2021/11/04 06:26:49;;;;;;;6.13;3.58;;;;;;;6.67;91.35;100631.44;5045857;28;20593;-68
2021/11/04 06:29:15;;;;;;;5.07;2.60;;;;;;;6.67;91.74;100631.44;5045346;28;20040;-68
2021/11/04 06:31:40;;;;;;;3.70;2.50;;;;;;;6.66;91.77;100639.28;5044248;28;20061;-68
2021/11/04 06:34:07;;;;;;;5.35;2.70;;;;;;;6.68;92.01;100635.81;5044616;28;20088;-67
2021/11/04 06:36:32;;;;;;;5.68;2.45;;;;;;;6.69;91.81;100631.47;5045494;28;20101;-68
2021/11/04 06:38:59;;;;;;;6.10;2.80;;;;;;;6.71;91.90;100635.84;5044676;28;20057;-69
2021/11/04 06:41:24;;;;;;;4.65;2.70;;;;;;;6.75;92.27;100639.38;5044305;28;20029;-68
2021/11/04 06:43:50;;;;;;;2.90;2.35;;;;;;;6.78;92.28;100642.00;5044610;28;20044;-68
2021/11/04 06:46:23;;;;;;;6.35;2.03;;;;;;;6.82;92.29;100643.78;5044986;28;20163;-69
2021/11/04 06:49:00;;;;;;;2.50;2.17;;;;;;;6.88;92.32;100651.72;5043884;28;20022;-67
2021/11/04 06:51:28;;;;;;;6.55;2.35;;;;;;;6.95;92.14;100650.00;5043586;28;20097;-67
2021/11/04 06:53:55;;;;;;;4.97;2.05;;;;;;;7.00;92.33;100659.66;5044584;28;20420;-68
2021/11/04 06:56:21;;;;;;;6.60;1.90;;;;;;;7.05;92.31;100667.56;5042882;28;20033;-64
2021/11/04 06:58:50;;;;;;;6.80;2.00;;;;;;;7.12;92.50;100671.94;5041707;28;20038;-65
2021/11/04 07:01:17;;;;;;;5.30;1.80;;;;;;;7.16;92.57;100663.28;5040136;28;20029;-65
2021/11/04 07:03:47;;;;;;;4.18;1.73;;;;;;;7.22;92.32;100655.50;5038696;28;20556;-66
2021/11/04 07:06:17;;;;;;;;;;;;;;;7.33;92.10;100658.19;5036449;28;20061;-66
2021/11/04 07:08:44;;;;;;;5.97;1.58;;;;;;;7.35;91.63;100664.34;5039235;28;19925;-64
2021/11/04 07:11:10;;;;;;;6.55;1.35;;;;;;;7.40;92.15;100672.22;5039019;28;20033;-64
2021/11/04 07:13:36;;;;;;;2.67;1.40;;;;;;;7.42;92.05;100667.88;5035215;28;20465;-64
2021/11/04 07:16:03;;;;;;;2.97;1.30;;;;;;;7.43;91.83;100674.88;5030282;28;20029;-64
2021/11/04 07:18:29;;;;;;;6.07;1.63;;;;;;;7.47;92.47;100683.63;5037936;28;20092;-64
2021/11/04 07:21:10;;;;;;;4.43;1.40;;;;;;;7.50;91.75;100684.50;5041893;28;20057;-64
2021/11/04 07:23:35;;;;;;;3.63;1.23;;;;;;;7.58;91.96;100690.69;5042154;28;20092;-65
2021/11/04 07:26:02;;;;;;;5.18;1.08;;;;;;;7.71;93.23;100690.75;5043105;28;20545;-65
2021/11/04 07:28:29;;;;;;;2.70;1.13;;;;;;;7.80;91.78;100696.94;5039502;28;20140;-65
2021/11/04 07:30:57;;;;;;;4.88;1.50;;;;;;;7.89;91.73;100695.25;5042077;28;20034;-66
2021/11/04 07:33:29;;;;;;;9.68;1.38;;;;;;;7.96;91.40;100697.06;5041267;28;20018;-65
2021/11/04 07:35:57;;;;;;;5.35;0.90;;;;;;;8.03;90.79;100690.97;5041684;28;20028;-64
2021/11/04 07:38:26;;;;;;;4.03;1.15;;;;;;;8.11;91.08;100689.31;5042372;28;20513;-64
2021/11/04 07:40:52;;;;;;;6.18;1.35;;;;;;;8.22;90.43;100685.88;5042656;28;20067;-64
2021/11/04 07:43:18;;;;;;;6.82;1.70;;;;;;;8.28;90.15;100689.41;5043669;28;20378;-65
2021/11/04 07:45:44;;;;;;;7.45;2.00;;;;;;;8.37;90.49;100686.84;5043705;28;20490;-64
2021/11/04 07:48:09;;;;;;;11.57;2.08;;;;;;;8.45;90.47;100683.38;5043440;28;20043;-65
2021/11/04 07:50:35;;;;;;;6.03;1.90;;;;;;;8.50;89.56;100686.91;5031505;28;20034;-66
2021/11/04 07:53:01;;;;;;;11.30;1.60;;;;;;;8.56;89.64;100679.97;5043492;28;20049;-64
2021/11/04 07:55:27;;;;;;;8.55;2.63;;;;;;;8.64;89.27;100681.72;5038960;28;20026;-66
2021/11/04 07:57:53;;;;;;;7.82;2.60;;;;;;;8.68;89.27;100681.75;5041083;28;20143;-67
2021/11/04 08:00:21;;;;;;;9.32;2.60;;;;;;;8.70;89.30;100677.38;5040099;28;20038;-67
2021/11/04 08:02:47;;;;;;;8.40;2.78;;;;;;;8.72;89.72;100675.63;5039909;28;20033;-66
2021/11/04 08:05:15;;;;;;;13.80;3.00;;;;;;;8.74;90.39;100679.13;5042650;28;20029;-65
2021/11/04 08:07:41;;;;;;;4.32;2.40;;;;;;;8.81;90.28;100668.66;5043205;28;20077;-65
2021/11/04 08:10:14;;;;;;;15.10;2.13;;;;;;;8.91;90.25;100680.94;5042591;28;20025;-65
2021/11/04 08:12:39;;;;;;;4.35;1.52;;;;;;;9.00;89.56;100680.97;5042519;28;20030;-65
2021/11/04 08:15:07;;;;;;;5.95;1.55;;;;;;;9.12;89.80;100680.13;5041277;28;20041;-66
2021/11/04 08:17:33;;;;;;;8.15;1.95;;;;;;;9.30;89.68;100681.88;5041452;28;20157;-66
2021/11/04 08:19:59;;;;;;;3.80;1.38;;;;;;;9.44;89.92;100677.53;5043809;28;20033;-68
2021/11/04 08:22:24;;;;;;;6.85;1.50;;;;;;;9.61;89.62;100684.53;5040524;28;20056;-67
2021/11/04 08:24:50;;;;;;;7.90;1.80;;;;;;;9.78;89.70;100688.00;5040948;28;20084;-68
2021/11/04 08:27:17;;;;;;;8.20;2.70;;;;;;;9.92;88.96;100685.34;5043542;28;20021;-68
2021/11/04 08:29:43;;;;;;;6.80;2.42;;;;;;;10.03;87.57;100688.84;5043535;28;20067;-68
2021/11/04 08:32:11;;;;;;;9.23;1.90;;;;;;;10.08;85.64;100683.59;5042188;28;20033;-68
2021/11/04 08:34:37;;;;;;;5.03;1.20;;;;;;;10.11;85.80;100689.72;5043093;28;20030;-68
2021/11/04 08:37:03;;;;;;;5.30;1.20;;;;;;;10.18;86.27;100693.19;5042457;28;20034;-68
2021/11/04 08:39:28;;;;;;;3.17;0.90;;;;;;;10.24;84.15;100694.91;5040599;28;20030;-69
2021/11/04 08:41:54;;;;;;;3.70;0.90;;;;;;;10.20;85.20;100701.06;5042641;28;20033;-69
2021/11/04 08:44:20;;;;;;;3.78;1.42;;;;;;;10.26;84.03;100698.41;5041517;28;20089;-68
2021/11/04 08:46:47;;;;;;;3.53;0.90;;;;;;;10.27;82.63;100706.28;5041468;28;20050;-69
2021/11/04 08:49:12;;;;;;;1.20;0.52;;;;;;;10.30;82.63;100701.06;5042654;28;20029;-69
2021/11/04 08:51:38;;;;;;;5.70;0.90;;;;;;;10.28;82.29;100701.91;5038628;28;20024;-70
2021/11/04 08:54:04;;;;;;;6.38;0.85;;;;;;;10.23;82.65;100706.31;5042928;28;20048;-70
2021/11/04 08:56:29;;;;;;;1.80;0.60;;;;;;;10.23;83.33;100709.81;5042321;28;20116;-70
2021/11/04 08:58:54;;;;;;;3.72;1.25;;;;;;;10.24;82.47;100710.69;5036505;28;20034;-69
2021/11/04 09:01:20;;;;;;;3.58;0.60;;;;;;;10.23;81.76;100724.69;5040339;28;20110;-70
2021/11/04 09:03:46;;;;;;;1.88;0.90;;;;;;;10.10;81.94;100732.59;5042408;28;20025;-71
2021/11/04 09:06:11;;;;;;;4.32;1.05;;;;;;;10.09;82.01;100730.84;5033738;28;20061;-71
2021/11/04 09:08:36;;;;;;;3.60;1.05;;;;;;;9.88;84.96;100744.84;5040221;28;20037;-70
2021/11/04 09:11:02;;;;;;;4.85;1.10;;;;;;;9.85;83.51;100737.00;5038153;28;20029;-71
2021/11/04 09:13:27;;;;;;;2.38;0.75;;;;;;;9.90;83.90;100745.72;5042174;28;20068;-65
2021/11/04 09:15:53;;;;;;;3.47;0.80;;;;;;;9.94;83.09;100747.50;5041493;28;20045;-64
2021/11/04 09:18:20;;;;;;;2.80;0.73;;;;;;;9.92;81.29;100748.34;5039493;28;20030;-64
2021/11/04 09:20:46;;;;;;;5.10;0.60;;;;;;;9.67;82.22;100744.84;5039091;28;20045;-65
2021/11/04 09:23:12;;;;;;;4.47;0.70;;;;;;;9.56;82.48;100750.97;5041087;28;20041;-64
2021/11/04 09:25:38;;;;;;;4.00;0.70;;;;;;;9.45;83.84;100741.31;5035301;28;20083;-64
2021/11/04 09:28:03;;;;;;;6.63;1.55;;;;;;;9.33;85.46;100723.84;5041441;28;20033;-65
2021/11/04 09:30:31;;;;;;;2.65;0.77;;;;;;;9.16;84.83;100719.44;5039803;28;20021;-65
2021/11/04 09:32:56;;;;;;;3.05;0.70;;;;;;;8.96;85.83;100722.00;5038447;28;20030;-64
2021/11/04 09:35:23;;;;;;;3.40;1.00;;;;;;;8.93;85.66;100723.75;5041790;28;20125;-65
2021/11/04 09:37:49;;;;;;;2.78;0.70;;;;;;;8.81;86.92;100711.50;5041985;28;20072;-65
2021/11/04 09:40:17;;;;;;;1.10;0.98;;;;;;;8.74;87.92;100709.72;5039920;28;20059;-65
2021/11/04 09:42:46;;;;;;;6.00;1.42;;;;;;;8.68;88.78;100715.81;5044749;28;20802;-66
2021/11/04 09:45:11;;;;;;;5.90;1.10;;;;;;;8.66;88.51;100716.63;5045165;28;20029;-65
2021/11/04 09:47:37;;;;;;;4.47;1.10;;;;;;;8.66;89.05;100722.78;5045214;28;20029;-64
2021/11/04 09:50:09;;;;;;;4.78;1.25;;;;;;;8.66;89.20;100725.41;5045534;28;20159;-64
2021/11/04 09:52:37;;;;;;;3.33;2.05;;;;;;;8.69;90.01;100724.53;5033940;28;20823;-65
2021/11/04 09:55:07;;;;;;;5.13;1.80;;;;;;;8.71;90.45;100720.16;5042420;28;20025;-67
2021/11/04 09:57:32;;;;;;;;;;;;;;;8.77;90.48;100722.81;5042832;28;20021;-66
2021/11/04 09:59:58;;;;;;;1.52;1.40;;;;;;;8.80;90.16;100720.22;5040170;28;19921;-67
2021/11/04 10:02:25;;;;;;;6.53;1.63;;;;;;;8.87;90.13;100723.75;5042407;28;20095;-67
2021/11/04 10:04:52;;;;;;;6.68;1.40;;;;;;;8.91;89.59;100725.50;5045860;28;20040;-68
2021/11/04 10:07:18;;;;;;;6.05;1.80;;;;;;;8.94;89.40;100723.75;5043888;28;20072;-66
2021/11/04 10:10:01;;;;;;;6.95;2.30;;;;;;;8.94;90.14;100733.34;5042538;28;20239;-67
2021/11/04 10:12:27;;;;;;;4.78;2.20;;;;;;;8.96;90.61;100737.75;5041472;28;20396;-69
2021/11/04 10:14:54;;;;;;;2.90;1.85;;;;;;;8.98;89.77;100738.63;5042532;28;20039;-69
2021/11/04 10:17:38;;;;;;;5.97;2.05;;;;;;;9.04;90.30;100736.91;5044909;28;20030;-68
2021/11/04 10:20:36;;;;;;;6.40;1.80;;;;;;;9.19;89.53;100747.41;5040496;28;20091;-68
2021/11/04 10:23:08;;;;;;;6.28;1.58;;;;;;;9.33;88.96;100745.69;4996881;28;20049;-69
2021/11/04 10:25:34;;;;;;;8.45;1.67;;;;;;;9.54;88.16;100752.69;4998927;28;20038;-69
2021/11/04 10:28:19;;;;;;;7.28;1.70;;;;;;;9.71;87.86;100751.84;4997995;28;20077;-69
2021/11/04 10:30:45;;;;;;;9.30;1.73;;;;;;;9.94;85.73;100757.09;4997829;28;20038;-67
2021/11/04 10:33:31;;;;;;;6.28;1.75;;;;;;;10.13;83.34;100755.31;4998223;28;20049;-68
2021/11/04 10:36:03;;;;;;;3.53;1.35;;;;;;;10.30;82.75;100747.41;5001480;28;20027;-69
2021/11/04 10:38:45;;;;;;;5.18;1.70;;;;;;;10.29;82.60;100757.06;4999218;28;20478;-69
2021/11/04 10:41:29;;;;;;;4.15;1.58;;;;;;;10.32;82.76;100753.56;5000535;28;20066;-70
2021/11/04 10:43:58;;;;;;;4.38;1.50;;;;;;;10.40;81.22;100749.19;5003247;28;20042;-69
2021/11/04 10:46:25;;;;;;;1.70;0.88;;;;;;;10.50;81.97;100761.41;4998315;28;20042;-69
2021/11/04 10:49:03;;;;;;;7.63;1.63;;;;;;;10.62;80.47;100754.38;5002780;28;20045;-69
2021/11/04 10:51:33;;;;;;;6.82;1.27;;;;;;;10.66;80.74;100746.50;5002300;28;20066;-69
2021/11/04 10:54:02;;;;;;;2.60;0.90;;;;;;;10.74;81.15;100749.09;5001241;28;20038;-70
2021/11/04 10:56:29;;;;;;;3.97;1.30;;;;;;;10.82;80.78;100759.56;5003375;28;20414;-70
2021/11/04 10:59:04;;;;;;;8.82;1.30;;;;;;;10.86;81.38;100756.06;5013690;28;20080;-70
2021/11/04 11:01:32;;;;;;;7.22;1.35;;;;;;;10.97;80.95;100756.00;5045463;28;20117;-69
2021/11/04 11:04:02;;;;;;;5.32;0.73;;;;;;;11.01;79.60;100752.47;5042635;28;20023;-69
2021/11/04 11:06:29;;;;;;;4.22;0.80;;;;;;;11.04;78.48;100755.97;5044671;28;20017;-69
2021/11/04 11:08:58;;;;;;;4.78;0.80;;;;;;;11.09;76.88;100755.94;5043272;28;20028;-70
2021/11/04 11:11:24;;;;;;;5.47;0.75;;;;;;;11.09;78.42;100767.31;5043990;28;20029;-70
2021/11/04 11:13:49;;;;;;;1.38;0.60;;;;;;;11.11;78.20;100769.94;5042920;28;20807;-71
2021/11/04 11:16:17;;;;;;;2.63;0.40;;;;;;;11.17;77.95;100762.06;5044957;28;20556;-70
2021/11/04 11:18:42;;;;;;;1.63;0.40;;;;;;;11.21;75.43;100753.25;5044793;28;20057;-71
2021/11/04 11:21:08;;;;;;;2.45;0.50;;;;;;;11.21;76.50;100761.16;5042940;28;20025;-70
2021/11/04 11:23:34;;;;;;;2.00;0.50;;;;;;;11.30;76.10;100758.47;5043066;28;20101;-71
2021/11/04 11:26:01;;;;;;;3.03;0.50;;;;;;;11.34;76.39;100771.56;5042572;28;20029;-71
2021/11/04 11:28:30;;;;;;;1.30;0.40;;;;;;;11.36;75.40;100772.44;5042444;28;20104;-69